Time;durP1;ratioP1;P1;durP2;ratioP2;P2;SDS_P1;SDS_P2;PMS_P1;PMS_P2;Temp;Humidity;BMP_temperature;BMP_pressure;BME280_temperature;BME280_humidity;BME280_pressure;Samples;Min_cycle;Max_cycle;Signal;HPM_P1;HPM_P2
2022/08/05 00:01:12;;;;;;;;;;;22.20;65.30;;;21.61;60.48;96394.38;4128576;34;20064;-85
2022/08/05 00:03:41;;;;;;;;;;;22.20;65.20;;;21.60;60.57;96387.19;4150886;34;19975;-85
2022/08/05 00:06:11;;;;;;;;;;;22.20;65.30;;;21.60;60.58;96399.13;4151256;34;19903;-85
2022/08/05 00:08:40;;;;;;;;;;;22.20;65.30;;;21.59;60.34;96396.66;4128644;34;19903;-85
2022/08/05 00:11:11;;;;;;;;;;;22.20;65.40;;;21.58;60.24;96393.03;4151219;34;19910;-85
2022/08/05 00:13:40;;;;;;;;;;;22.20;65.40;;;21.59;60.32;96397.50;4150813;34;20142;-86
2022/08/05 00:16:13;;;;;;;;;;;22.20;65.40;;;21.57;60.55;96399.75;4151992;34;19903;-85
2022/08/05 00:18:44;;;;;;;;;;;22.20;65.30;;;21.58;60.26;96401.41;4128693;34;20048;-85
2022/08/05 00:21:15;;;;;;;;;;;22.20;65.30;;;21.57;60.27;96399.75;4151145;34;19986;-84
2022/08/05 00:23:44;;;;;;;;;;;22.20;65.30;;;21.57;60.17;96393.38;4151401;34;20163;-84
2022/08/05 00:26:13;;;;;;;;;;;22.20;65.30;;;21.56;60.44;96397.31;4128217;34;19904;-85
2022/08/05 00:28:42;;;;;;;;;;;22.10;65.30;;;21.58;60.37;96400.59;4151950;34;19903;-85
2022/08/05 00:31:11;;;;;;;;;;;22.10;65.30;;;21.55;60.62;96392.91;4150910;34;20057;-86
2022/08/05 00:33:39;;;;;;;;;;;22.20;65.30;;;21.56;60.37;96397.31;4173475;34;19903;-85
2022/08/05 00:36:08;;;;;;;;;;;22.20;65.30;;;21.56;60.28;96402.91;4150751;34;19915;-86
2022/08/05 00:38:38;;;;;;;;;;;22.10;66.10;;;21.55;60.37;96399.31;4144461;34;19904;-86
2022/08/05 00:41:07;;;;;;;;;;;22.10;65.30;;;21.56;60.45;96397.31;4174787;33;20143;-85
2022/08/05 00:43:35;;;;;;;;;;;22.20;65.30;;;21.55;60.22;96399.31;4205584;33;20214;-85
2022/08/05 00:46:04;;;;;;;;;;;22.10;65.30;;;21.54;60.43;96394.88;4164630;34;20119;-85
2022/08/05 00:48:33;;;;;;;;;;;22.10;65.30;;;21.54;60.31;96388.50;4178219;34;20337;-85
2022/08/05 00:51:01;;;;;;;;;;;22.10;65.30;;;21.54;60.50;96394.06;4194635;33;20240;-84
2022/08/05 00:53:30;;;;;;;;;;;22.10;65.20;;;21.53;60.38;96395.22;4205611;33;19902;-85
2022/08/05 00:56:00;;;;;;;;;;;22.10;65.30;;;21.52;60.29;96391.63;4206234;33;20071;-85
2022/08/05 00:58:28;;;;;;;;;;;22.10;65.30;;;21.53;60.39;96387.69;4182727;33;19911;-85
2022/08/05 01:00:57;;;;;;;;;;;22.10;65.30;;;21.52;60.22;96388.00;4207007;33;19903;-85
2022/08/05 01:03:26;;;;;;;;;;;22.10;65.30;;;21.52;60.45;96391.63;4182227;33;20087;-85
2022/08/05 01:05:54;;;;;;;;;;;22.10;65.30;;;21.52;60.62;96382.44;4206017;33;20344;-86
2022/08/05 01:08:23;;;;;;;;;;;22.10;65.30;;;21.51;60.57;96378.84;4182580;33;19903;-84
2022/08/05 01:10:54;;;;;;;;;;;22.10;65.40;;;21.52;60.51;96376.88;4205940;33;19909;-85
2022/08/05 01:13:29;;;;;;;;;;;22.10;65.50;;;21.50;60.04;96379.16;4205343;33;20087;-85
2022/08/05 01:16:00;;;;;;;;;;;22.10;65.30;;;21.51;60.43;96378.00;4206037;33;19910;-85
2022/08/05 01:18:33;;;;;;;;;;;22.10;65.30;;;21.51;60.29;96383.59;4182621;33;19912;-85
2022/08/05 01:21:07;;;;;;;;;;;22.10;65.30;;;21.49;60.45;96372.78;4206792;33;19917;-85
2022/08/05 01:23:49;;;;;;;;;;;22.10;65.40;;;21.50;60.40;96377.22;4182129;33;20019;-84
2022/08/05 01:26:40;;;;;;;;;;;22.10;65.40;;;21.50;60.33;96387.53;4205907;33;19902;-84
2022/08/05 01:29:14;;;;;;;;;;;22.10;65.30;;;21.49;60.26;96385.91;4205434;33;19902;-84
2022/08/05 01:31:45;;;;;;;;;;;22.10;65.40;;;21.50;60.46;96390.31;4206724;33;20214;-85
2022/08/05 01:34:17;;;;;;;;;;;22.10;65.50;;;21.49;60.30;96385.91;4204711;33;20138;-85
2022/08/05 01:36:51;;;;;;;;;;;22.10;65.40;;;21.47;60.55;96380.66;4182515;33;20158;-85
2022/08/05 01:39:19;;;;;;;;;;;22.10;65.30;;;21.48;60.31;96384.28;4182325;33;19951;-86
2022/08/05 01:41:48;;;;;;;;;;;22.10;65.40;;;21.48;60.44;96384.28;4206543;33;20336;-85
2022/08/05 01:44:18;;;;;;;;;;;22.10;65.50;;;21.46;60.53;96379.88;4206112;33;20333;-86
2022/08/05 01:46:47;;;;;;;;;;;22.10;65.30;;;21.47;60.46;96389.03;4206425;33;19909;-85
2022/08/05 01:49:18;;;;;;;;;;;22.00;65.20;;;21.46;60.55;96387.38;4182503;33;20159;-86
2022/08/05 01:51:47;;;;;;;;;;;22.00;65.20;;;21.44;60.25;96379.38;4205397;33;19903;-85
2022/08/05 01:54:15;;;;;;;;;;;22.10;65.30;;;21.46;60.57;96387.38;4205901;33;19910;-86
2022/08/05 01:56:44;;;;;;;;;;;22.10;65.40;;;21.44;60.66;96387.72;4205380;33;20428;-86
2022/08/05 01:59:15;;;;;;;;;;;22.00;66.30;;;21.45;60.47;96386.59;4205273;33;19906;-86
2022/08/05 02:01:45;;;;;;;;;;;22.00;65.30;;;21.44;60.47;96379.38;4182176;33;19909;-86
2022/08/05 02:04:13;;;;;;;;;;;22.00;65.30;;;21.44;60.43;96384.13;4181486;33;20222;-86
2022/08/05 02:06:42;;;;;;;;;;;22.00;65.30;;;21.44;60.34;96382.16;4205483;33;20056;-86
2022/08/05 02:09:11;;;;;;;;;;;22.00;65.30;;;21.42;60.34;96381.69;4181844;33;19946;-86
2022/08/05 02:11:44;;;;;;;;;;;22.00;65.40;;;21.42;60.40;96376.09;4181997;33;19983;-85
2022/08/05 02:14:15;;;;;;;;;;;22.00;65.30;;;21.42;60.40;96375.31;4205673;33;19910;-86
2022/08/05 02:16:48;;;;;;;;;;;22.00;65.20;;;21.42;60.44;96372.53;4181986;33;19944;-86
2022/08/05 02:19:23;;;;;;;;;;;22.00;65.40;;;21.41;60.41;96368.91;4181956;33;19919;-86
2022/08/05 02:21:56;;;;;;;;;;;22.00;65.20;;;21.39;60.27;96365.63;4206222;33;20348;-86
2022/08/05 02:24:28;;;;;;;;;;;22.00;65.20;;;21.39;60.33;96365.63;4204709;33;19914;-86
2022/08/05 02:26:58;;;;;;;;;;;22.00;65.30;;;21.39;60.54;96362.84;4205021;33;20036;-85
2022/08/05 02:29:28;;;;;;;;;;;22.00;65.30;;;21.39;60.29;96362.84;4205818;33;19903;-86
2022/08/05 02:31:58;;;;;;;;;;;22.00;65.30;;;21.39;60.39;96360.06;4166392;33;19949;-86
2022/08/05 02:34:30;;;;;;;;;;;22.00;65.30;;;21.38;60.36;96352.88;4126940;34;20057;-85
2022/08/05 02:37:01;;;;;;;;;;;22.00;65.30;;;21.38;60.21;96358.44;4127227;34;20223;-86
2022/08/05 02:39:33;;;;;;;;;;;22.00;65.30;;;21.38;60.45;96358.44;4127066;34;20136;-85
2022/08/05 02:42:02;;;;;;;;;;;22.00;65.30;;;21.37;60.11;96359.59;4149228;34;19910;-84
2022/08/05 02:44:31;;;;;;;;;;;22.00;65.30;;;21.37;60.58;96367.94;4148660;34;20164;-85
2022/08/05 02:47:02;;;;;;;;;;;22.00;65.30;;;21.37;60.22;96362.38;4125850;34;19912;-84
2022/08/05 02:49:33;;;;;;;;;;;22.00;65.20;;;21.37;60.23;96361.56;4149447;34;20482;-85
2022/08/05 02:52:01;;;;;;;;;;;22.00;65.30;;;21.36;60.29;96355.19;4149514;34;20339;-85
2022/08/05 02:54:30;;;;;;;;;;;21.90;65.20;;;21.34;60.33;96351.94;4126922;34;19904;-85
2022/08/05 02:56:58;;;;;;;;;;;21.90;65.30;;;21.36;60.46;96357.97;4126993;34;20084;-85
2022/08/05 02:59:27;;;;;;;;;;;22.00;65.20;;;21.35;60.46;96352.72;4149482;34;19904;-84
2022/08/05 03:01:59;;;;;;;;;;;21.90;65.30;;;21.34;60.09;96354.72;4149651;34;20124;-84
2022/08/05 03:04:29;;;;;;;;;;;21.90;65.40;;;21.35;60.31;96358.28;4149100;34;19910;-84
2022/08/05 03:06:58;;;;;;;;;;;21.90;65.40;;;21.34;60.43;96357.50;4126805;34;20068;-85
2022/08/05 03:09:26;;;;;;;;;;;21.90;65.30;;;21.34;60.40;96357.50;4126716;34;19993;-85
2022/08/05 03:11:55;;;;;;;;;;;21.90;65.30;;;21.32;60.44;96357.00;4126756;34;19910;-84
2022/08/05 03:14:23;;;;;;;;;;;21.90;65.30;;;21.34;60.24;96357.50;4181073;33;20079;-85
2022/08/05 03:16:52;;;;;;;;;;;21.90;65.30;;;21.34;60.44;96356.66;4181486;33;19910;-85
2022/08/05 03:19:21;;;;;;;;;;;21.90;65.30;;;21.33;60.44;96364.22;4181209;33;19913;-85
2022/08/05 03:21:51;;;;;;;;;;;22.00;65.30;;;21.33;60.35;96352.25;4181512;33;20459;-84
2022/08/05 03:24:20;;;;;;;;;;;21.90;65.30;;;21.33;60.41;96343.88;4204248;33;20099;-84
2022/08/05 03:26:48;;;;;;;;;;;21.90;65.30;;;21.33;60.43;96355.03;4205536;33;20028;-84
2022/08/05 03:29:17;;;;;;;;;;;21.90;65.30;;;21.32;60.50;96348.66;4204533;33;19902;-85
2022/08/05 03:31:45;;;;;;;;;;;21.90;65.30;;;21.33;60.40;96355.03;4181597;33;19910;-84
2022/08/05 03:34:14;;;;;;;;;;;21.90;65.30;;;21.34;60.25;96353.88;4203987;33;19906;-84
2022/08/05 03:36:43;;;;;;;;;;;21.90;65.20;;;21.33;60.46;96349.47;4181268;33;19903;-85
2022/08/05 03:39:13;;;;;;;;;;;21.90;65.30;;;21.33;60.34;96343.88;4181118;33;20167;-85
2022/08/05 03:41:41;;;;;;;;;;;21.90;65.20;;;21.34;60.29;96354.72;4181378;33;19910;-85
2022/08/05 03:44:10;;;;;;;;;;;21.90;65.10;;;21.35;60.19;96352.72;4203944;33;20214;-85
2022/08/05 03:46:38;;;;;;;;;;;21.90;65.00;;;21.36;60.06;96355.19;4204613;33;20013;-84
2022/08/05 03:49:07;;;;;;;;;;;22.00;64.80;;;21.36;60.22;96355.19;4180886;33;20014;-84
2022/08/05 03:51:39;;;;;;;;;;;22.00;64.90;;;21.37;59.74;96356.81;4181367;33;19903;-85
2022/08/05 03:54:13;;;;;;;;;;;22.00;64.80;;;21.40;59.81;96366.47;4180536;33;20113;-85
2022/08/05 03:56:42;;;;;;;;;;;22.00;64.70;;;21.41;59.75;96368.09;4204530;33;20110;-85
2022/08/05 03:59:16;;;;;;;;;;;22.00;64.70;;;21.43;60.16;96366.59;4206799;33;20188;-85
2022/08/05 04:01:47;;;;;;;;;;;22.00;64.70;;;21.43;59.70;96372.19;4183521;33;19903;-83
2022/08/05 04:04:15;;;;;;;;;;;22.00;64.50;;;21.45;59.78;96375.44;4183062;33;19958;-84
2022/08/05 04:06:44;;;;;;;;;;;22.00;64.40;;;21.46;59.80;96370.69;4207701;33;19949;-83
2022/08/05 04:09:14;;;;;;;;;;;22.10;64.60;;;21.49;59.87;96372.00;4183321;33;20166;-83
2022/08/05 04:11:43;;;;;;;;;;;22.10;64.70;;;21.49;59.89;96372.00;4183653;33;19910;-85
2022/08/05 04:14:11;;;;;;;;;;;22.10;64.70;;;21.50;59.83;96370.81;4182800;33;20528;-85
2022/08/05 04:16:40;;;;;;;;;;;22.10;64.80;;;21.52;60.32;96365.72;4183207;33;19906;-84
2022/08/05 04:19:11;;;;;;;;;;;22.10;65.00;;;21.53;59.90;96359.81;4206478;33;20157;-85
2022/08/05 04:21:40;;;;;;;;;;;22.10;65.00;;;21.55;60.27;96363.09;4183258;33;20130;-85
2022/08/05 04:24:08;;;;;;;;;;;22.20;65.00;;;21.57;60.30;96355.19;4182611;33;20134;-84
2022/08/05 04:26:38;;;;;;;;;;;22.20;65.00;;;21.58;60.43;96361.59;4183009;33;19903;-85
2022/08/05 04:29:07;;;;;;;;;;;22.20;65.20;;;21.61;60.15;96366.53;4207098;33;20122;-84
2022/08/05 04:31:36;;;;;;;;;;;22.20;65.30;;;21.63;60.84;96364.19;4206457;33;19918;-86
2022/08/05 04:34:05;;;;;;;;;;;22.20;65.60;;;21.64;60.90;96360.25;4192150;33;19904;-85
2022/08/05 04:36:33;;;;;;;;;;;22.20;65.80;;;21.65;60.76;96359.09;4150970;34;20050;-85
2022/08/05 04:39:02;;;;;;;;;;;22.30;65.90;;;21.67;60.99;96362.38;4173701;34;20029;-84
2022/08/05 04:41:31;;;;;;;;;;;22.30;65.90;;;21.71;61.02;96365.28;4128434;34;20107;-83
2022/08/05 04:44:01;;;;;;;;;;;22.30;66.00;;;21.73;61.13;96374.97;4127935;34;19905;-84
2022/08/05 04:46:29;;;;;;;;;;;22.30;66.00;;;21.74;61.06;96364.63;4150717;34;19904;-85
2022/08/05 04:48:58;;;;;;;;;;;22.30;66.00;;;21.76;61.11;96377.03;4150634;34;19907;-83
2022/08/05 04:51:26;;;;;;;;;;;22.40;65.80;;;21.77;60.89;96367.53;4150631;34;19903;-84
2022/08/05 04:53:55;;;;;;;;;;;22.40;65.80;;;21.81;60.79;96364.06;4151330;34;19944;-85
2022/08/05 04:56:24;;;;;;;;;;;22.40;65.80;;;21.81;61.04;96370.47;4150608;34;19915;-84
2022/08/05 04:58:52;;;;;;;;;;;22.40;65.60;;;21.82;60.93;96369.28;4128003;34;19945;-85
2022/08/05 05:01:22;;;;;;;;;;;22.40;65.60;;;21.83;60.78;96368.16;4150773;34;19945;-84
2022/08/05 05:03:51;;;;;;;;;;;22.40;65.60;;;21.84;61.13;96364.19;4150392;34;20289;-84
2022/08/05 05:06:19;;;;;;;;;;;22.40;65.60;;;21.85;60.83;96356.66;4151647;34;20105;-84
2022/08/05 05:08:51;;;;;;;;;;;22.50;65.80;;;21.87;60.67;96359.94;4150800;34;19903;-84
2022/08/05 05:11:21;;;;;;;;;;;22.40;65.70;;;21.86;60.70;96356.31;4151655;34;19911;-86
2022/08/05 05:13:49;;;;;;;;;;;22.50;65.70;;;21.86;61.02;96349.94;4150097;34;20360;-85
2022/08/05 05:16:18;;;;;;;;;;;22.50;65.90;;;21.87;61.05;96348.78;4150578;34;19907;-85
2022/08/05 05:18:48;;;;;;;;;;;22.50;65.90;;;21.87;60.73;96349.59;4150660;34;19904;-85
2022/08/05 05:21:17;;;;;;;;;;;22.50;65.70;;;21.88;60.81;96342.88;4151435;34;19911;-84
2022/08/05 05:23:45;;;;;;;;;;;22.50;65.70;;;21.89;60.74;96347.28;4149951;34;19930;-85
2022/08/05 05:26:14;;;;;;;;;;;22.50;65.60;;;21.90;61.12;96350.88;4151455;34;20017;-85
2022/08/05 05:28:43;;;;;;;;;;;22.50;65.70;;;21.90;60.61;96345.31;4150499;34;19903;-85
2022/08/05 05:31:11;;;;;;;;;;;22.50;65.70;;;21.92;60.66;96349.41;4127513;34;20413;-86
2022/08/05 05:33:40;;;;;;;;;;;22.60;65.50;;;21.95;60.78;96359.03;4149820;34;19927;-85
2022/08/05 05:36:10;;;;;;;;;;;22.50;65.60;;;21.96;60.40;96346.75;4150309;34;19910;-84
2022/08/05 05:38:39;;;;;;;;;;;22.60;65.20;;;21.99;60.49;96351.63;4127718;34;19903;-84
2022/08/05 05:41:08;;;;;;;;;;;22.60;65.10;;;22.03;60.44;96349.78;4150248;34;20215;-85
2022/08/05 05:43:36;;;;;;;;;;;22.60;65.20;;;22.09;60.52;96346.78;4149744;34;19911;-85
2022/08/05 05:46:05;;;;;;;;;;;22.70;65.30;;;22.13;60.08;96348.53;4187736;33;19978;-86
2022/08/05 05:48:34;;;;;;;;;;;22.70;65.20;;;22.18;60.26;96348.34;4205484;33;20130;-85
2022/08/05 05:51:03;;;;;;;;;;;22.70;65.10;;;22.22;60.22;96354.84;4182181;33;20029;-84
2022/08/05 05:53:33;;;;;;;;;;;22.80;65.10;;;22.26;60.05;96349.41;4181916;33;20041;-86
2022/08/05 05:56:01;;;;;;;;;;;22.80;65.10;;;22.29;60.08;96354.28;4182295;33;19902;-85
2022/08/05 05:58:30;;;;;;;;;;;22.90;65.00;;;22.32;59.98;96353.59;4182218;33;19982;-85
2022/08/05 06:00:59;;;;;;;;;;;22.90;64.90;;;22.35;60.27;96354.88;4182326;33;19909;-86
2022/08/05 06:03:27;;;;;;;;;;;23.00;64.80;;;22.36;59.72;96354.56;4181674;33;19902;-85
2022/08/05 06:05:56;;;;;;;;;;;22.90;64.70;;;22.38;60.15;96357.00;4205238;33;20088;-86
2022/08/05 06:08:24;;;;;;;;;;;23.00;64.70;;;22.41;59.91;96361.06;4205153;33;19902;-84
2022/08/05 06:10:54;;;;;;;;;;;23.00;64.60;;;22.41;59.94;96364.72;4181802;33;20058;-84
2022/08/05 06:13:23;;;;;;;;;;;23.00;64.40;;;22.42;59.80;96360.75;4204887;33;20222;-85
2022/08/05 06:15:52;;;;;;;;;;;23.00;64.30;;;22.43;59.96;96361.56;4205030;33;19910;-85
2022/08/05 06:18:20;;;;;;;;;;;23.00;64.50;;;22.43;60.11;96361.56;4205326;33;20441;-86
2022/08/05 06:20:49;;;;;;;;;;;23.00;64.30;;;22.46;59.97;96360.88;4204850;33;20221;-85
2022/08/05 06:23:17;;;;;;;;;;;23.00;64.40;;;22.46;59.80;96356.09;4204758;33;19903;-84
2022/08/05 06:25:46;;;;;;;;;;;23.10;64.50;;;22.49;59.57;96357.41;4204862;33;20065;-84
2022/08/05 06:28:16;;;;;;;;;;;23.10;64.40;;;22.51;59.39;96360.69;4205065;33;20128;-86
2022/08/05 06:30:45;;;;;;;;;;;23.10;64.40;;;22.50;59.79;96356.25;4204697;33;19986;-85
2022/08/05 06:33:13;;;;;;;;;;;23.10;64.40;;;22.52;59.70;96359.53;4204622;33;19902;-84
2022/08/05 06:35:42;;;;;;;;;;;23.10;64.40;;;22.52;59.87;96354.75;4204993;33;19947;-85
2022/08/05 06:38:10;;;;;;;;;;;23.10;64.40;;;22.53;59.84;96347.19;4181791;33;19902;-84
2022/08/05 06:40:39;;;;;;;;;;;23.10;64.50;;;22.55;59.84;96355.22;4181548;33;19902;-85
2022/08/05 06:43:07;;;;;;;;;;;23.10;64.40;;;22.56;59.20;96354.84;4204592;33;20152;-85
2022/08/05 06:45:37;;;;;;;;;;;23.10;64.30;;;22.56;59.65;96352.06;4205843;33;19903;-85
2022/08/05 06:48:06;;;;;;;;;;;23.10;64.30;;;22.58;59.77;96352.53;4181609;33;20122;-86
2022/08/05 06:50:34;;;;;;;;;;;23.20;64.20;;;22.59;59.50;96351.38;4181388;33;19902;-85
2022/08/05 06:53:03;;;;;;;;;;;23.20;64.20;;;22.62;59.51;96353.50;4205492;33;20127;-86
2022/08/05 06:55:32;;;;;;;;;;;23.20;64.20;;;22.63;59.57;96359.88;4204936;33;19903;-86
2022/08/05 06:58:00;;;;;;;;;;;23.20;64.10;;;22.63;59.30;96357.91;4181698;33;20280;-86
2022/08/05 07:00:30;;;;;;;;;;;23.20;64.10;;;22.63;59.61;96363.50;4204661;33;19910;-85
2022/08/05 07:03:00;;;;;;;;;;;23.20;64.90;;;22.66;59.56;96364.78;4204326;33;20043;-86
2022/08/05 07:05:28;;;;;;;;;;;23.20;64.10;;;22.67;59.19;96360.81;4204766;33;19998;-86
2022/08/05 07:07:57;;;;;;;;;;;23.20;64.00;;;22.71;59.02;96361.78;4181572;33;20263;-86
2022/08/05 07:10:25;;;;;;;;;;;23.30;64.10;;;22.72;59.49;96368.94;4181397;33;19910;-86
2022/08/05 07:18:28;;;;;;;;;;;23.30;64.00;;;22.79;59.07;96363.63;4149403;34;20005;-86
2022/08/05 07:20:56;;;;;;;;;;;23.30;64.00;;;22.80;58.96;96358.84;4126709;34;19911;-86
2022/08/05 07:23:25;;;;;;;;;;;23.30;63.90;;;22.82;59.18;96350.94;4148978;34;19903;-86
2022/08/05 07:25:54;;;;;;;;;;;23.40;63.80;;;22.84;59.36;96348.63;4126740;34;20237;-87
2022/08/05 07:28:23;;;;;;;;;;;23.30;63.80;;;22.84;58.89;96348.63;4150233;34;19903;-87
2022/08/05 07:30:52;;;;;;;;;;;23.40;63.80;;;22.86;58.66;96346.31;4126393;34;19934;-86
2022/08/05 07:33:21;;;;;;;;;;;23.40;63.70;;;22.90;58.97;96346.44;4128145;34;19907;-84
2022/08/05 07:35:51;;;;;;;;;;;23.40;63.80;;;22.92;58.67;96344.91;4129108;34;20120;-85
2022/08/05 07:38:19;;;;;;;;;;;23.40;63.50;;;22.93;58.68;96346.53;4151736;34;20039;-85
2022/08/05 07:40:49;;;;;;;;;;;23.50;63.80;;;22.93;58.62;96340.94;4151614;34;19903;-86
2022/08/05 07:43:17;;;;;;;;;;;23.40;63.50;;;22.95;58.53;96333.06;4151178;34;19910;-85
2022/08/05 07:45:46;;;;;;;;;;;23.50;63.60;;;22.97;58.89;96339.09;4152747;34;20026;-87
2022/08/05 07:48:14;;;;;;;;;;;23.50;63.50;;;22.96;58.83;96331.88;4128901;34;19918;-86
2022/08/05 07:50:43;;;;;;;;;;;23.50;63.50;;;22.98;58.93;96337.94;4152445;34;19910;-86
2022/08/05 07:53:13;;;;;;;;;;;23.50;63.50;;;22.98;58.55;96337.94;4128452;34;20130;-85
2022/08/05 07:55:42;;;;;;;;;;;23.50;63.50;;;22.97;58.71;96327.13;4151688;34;20013;-86
2022/08/05 07:58:10;;;;;;;;;;;23.50;63.40;;;22.99;58.67;96327.56;4151393;34;20148;-86
2022/08/05 08:00:39;;;;;;;;;;;23.50;63.50;;;22.98;58.50;96326.78;4151337;34;20060;-84
2022/08/05 08:03:10;;;;;;;;;;;23.50;63.50;;;22.99;58.56;96325.63;4150861;34;20127;-86
2022/08/05 08:05:41;;;;;;;;;;;23.50;63.50;;;23.01;58.55;96322.47;4128701;34;20119;-85
2022/08/05 08:08:09;;;;;;;;;;;23.50;63.40;;;23.00;58.78;96326.41;4128767;34;20100;-86
2022/08/05 08:10:39;;;;;;;;;;;23.50;63.40;;;23.02;58.52;96323.28;4151265;34;19903;-86
2022/08/05 08:13:08;;;;;;;;;;;23.60;63.40;;;23.00;58.80;96320.84;4150646;34;19904;-86
2022/08/05 08:15:37;;;;;;;;;;;23.50;63.30;;;23.02;58.85;96326.09;4151175;34;20078;-86
2022/08/05 08:18:05;;;;;;;;;;;23.60;63.40;;;23.03;58.75;96327.72;4128530;34;19993;-86
2022/08/05 08:20:34;;;;;;;;;;;23.60;63.40;;;23.02;58.63;96323.28;4151227;34;20069;-85
2022/08/05 08:23:03;;;;;;;;;;;23.60;63.40;;;23.01;58.88;96325.25;4150820;34;20164;-85
2022/08/05 08:25:31;;;;;;;;;;;23.60;63.30;;;23.02;58.91;96324.09;4173999;34;20101;-86
2022/08/05 08:28:01;;;;;;;;;;;23.60;63.30;;;23.02;58.79;96324.09;4128523;34;20112;-85
2022/08/05 08:30:30;;;;;;;;;;;23.60;63.40;;;22.99;58.67;96328.41;4128720;34;19911;-85
2022/08/05 08:32:58;;;;;;;;;;;23.60;63.40;;;23.01;58.46;96324.47;4167813;33;19925;-85
2022/08/05 08:35:27;;;;;;;;;;;23.60;63.40;;;22.97;58.75;96319.56;4183078;33;19911;-86
2022/08/05 08:37:56;;;;;;;;;;;23.50;63.40;;;22.95;58.72;96321.88;4199742;33;19903;-86
2022/08/05 08:40:24;;;;;;;;;;;23.50;63.40;;;22.94;58.69;96323.03;4178538;34;20381;-85
2022/08/05 08:42:53;;;;;;;;;;;23.50;63.40;;;22.91;59.06;96323.75;4154966;34;19910;-86
2022/08/05 08:45:23;;;;;;;;;;;23.50;63.50;;;22.92;58.67;96317.00;4155752;34;19910;-86
2022/08/05 08:47:52;;;;;;;;;;;23.50;63.60;;;22.89;59.04;96317.72;4155373;34;20111;-85
2022/08/05 08:50:21;;;;;;;;;;;23.50;63.70;;;22.89;58.91;96312.13;4178493;34;20125;-87
2022/08/05 08:52:53;;;;;;;;;;;23.50;63.80;;;22.87;59.44;96324.78;4177857;33;19972;-85
2022/08/05 08:55:21;;;;;;;;;;;23.50;64.00;;;22.86;59.05;96315.59;4155472;34;19922;-84
2022/08/05 08:57:50;;;;;;;;;;;23.50;64.00;;;22.84;59.36;96315.13;4178374;34;20066;-85
2022/08/05 09:00:19;;;;;;;;;;;23.40;63.90;;;22.84;59.43;96315.13;4155442;34;20009;-85
2022/08/05 09:02:49;;;;;;;;;;;23.40;63.90;;;22.82;59.04;96311.88;4177817;33;20160;-86
2022/08/05 09:05:18;;;;;;;;;;;23.40;64.00;;;22.81;59.60;96316.66;4144793;34;20017;-86
2022/08/05 09:07:46;;;;;;;;;;;23.40;64.00;;;22.81;59.53;96313.03;4150637;34;19910;-86
2022/08/05 09:10:15;;;;;;;;;;;23.40;64.00;;;22.79;59.29;96307.81;4128189;34;19912;-86
2022/08/05 09:12:43;;;;;;;;;;;23.40;64.10;;;22.78;59.68;96308.16;4127450;34;19911;-86
2022/08/05 09:15:12;;;;;;;;;;;23.40;64.10;;;22.78;59.40;96308.16;4150380;34;19969;-86
2022/08/05 09:17:41;;;;;;;;;;;23.40;64.10;;;22.77;59.56;96300.97;4127867;34;20223;-86
2022/08/05 09:20:12;;;;;;;;;;;23.40;64.10;;;22.77;59.43;96303.75;4127984;34;19966;-86
2022/08/05 09:23:10;;;;;;;;;;;23.40;64.20;;;22.76;59.74;96302.13;4150040;34;19936;-86
2022/08/05 09:25:40;;;;;;;;;;;23.40;64.20;;;22.76;59.24;96293.75;4150597;34;20143;-87
2022/08/05 09:28:14;;;;;;;;;;;23.40;64.20;;;22.74;59.55;96285.69;4150505;34;20165;-87
2022/08/05 09:30:53;;;;;;;;;;;23.40;64.30;;;22.75;59.74;96287.34;4150197;34;19904;-85
2022/08/05 09:33:21;;;;;;;;;;;23.40;64.30;;;22.75;59.64;96278.16;4127836;34;20287;-85
2022/08/05 09:35:59;;;;;;;;;;;23.40;64.30;;;22.75;59.76;96278.97;4154893;34;19903;-86
2022/08/05 09:38:28;;;;;;;;;;;23.40;64.40;;;22.75;59.54;96272.59;4155003;34;20240;-85
2022/08/05 09:41:03;;;;;;;;;;;23.30;64.40;;;22.74;60.04;96270.94;4154921;34;20187;-86
2022/08/05 09:43:33;;;;;;;;;;;23.30;64.50;;;22.74;59.98;96268.16;4177332;34;20135;-86
2022/08/05 09:46:03;;;;;;;;;;;23.40;64.40;;;22.72;59.81;96262.91;4154998;34;20351;-86
2022/08/05 09:48:33;;;;;;;;;;;23.30;64.50;;;22.73;59.82;96269.31;4177629;34;19903;-86
2022/08/05 09:51:04;;;;;;;;;;;23.30;64.40;;;22.72;59.78;96262.09;4182414;33;19925;-86
2022/08/05 09:53:47;;;;;;;;;;;23.30;64.60;;;22.72;59.90;96268.50;4181705;33;19903;-86
2022/08/05 09:56:23;;;;;;;;;;;23.30;64.70;;;22.73;59.82;96258.16;4149757;34;20135;-86
2022/08/05 09:58:59;;;;;;;;;;;23.30;64.60;;;22.73;60.14;96267.31;4151044;34;19911;-86
2022/08/05 10:01:28;;;;;;;;;;;23.30;64.60;;;22.72;60.04;96260.13;4149923;34;19903;-87
2022/08/05 10:03:58;;;;;;;;;;;23.30;64.60;;;22.72;59.67;96259.31;4149690;34;19910;-85
2022/08/05 10:06:28;;;;;;;;;;;23.30;64.60;;;22.72;59.96;96265.69;4127516;34;19918;-86
2022/08/05 10:09:10;;;;;;;;;;;23.30;64.60;;;22.70;59.88;96258.84;4127437;34;19913;-86
2022/08/05 10:11:39;;;;;;;;;;;23.30;64.60;;;22.68;59.71;96262.78;4150126;34;19903;-86
2022/08/05 10:14:21;;;;;;;;;;;23.30;64.60;;;22.64;60.17;96256.31;4130559;33;20166;-87
2022/08/05 10:16:50;;;;;;;;;;;23.30;64.80;;;22.63;59.78;96257.47;4205151;33;19963;-87
2022/08/05 10:19:19;;;;;;;;;;;23.30;64.90;;;22.63;60.39;96257.47;4178647;33;20113;-86
2022/08/05 10:21:49;;;;;;;;;;;23.20;64.80;;;22.62;59.95;96260.59;4177396;33;20211;-86
2022/08/05 10:24:18;;;;;;;;;;;23.20;64.80;;;22.61;60.30;96256.16;4153542;34;19904;-86
2022/08/05 10:26:48;;;;;;;;;;;23.20;64.90;;;22.59;60.33;96259.31;4177383;34;20215;-86
2022/08/05 10:29:17;;;;;;;;;;;23.20;64.90;;;22.57;60.16;96260.84;4177889;33;19903;-86
2022/08/05 10:31:46;;;;;;;;;;;23.20;65.00;;;22.57;60.42;96260.84;4181895;33;20138;-85
2022/08/05 10:34:14;;;;;;;;;;;23.20;65.00;;;22.57;60.15;96260.84;4181338;33;19994;-85
2022/08/05 10:36:43;;;;;;;;;;;23.20;65.10;;;22.57;60.09;96255.25;4181937;33;19903;-86
2022/08/05 10:39:17;;;;;;;;;;;23.20;65.10;;;22.57;60.04;96256.06;4204808;33;19910;-85
2022/08/05 10:41:50;;;;;;;;;;;23.20;65.10;;;22.58;60.25;96251.31;4154446;34;19903;-86
2022/08/05 10:44:19;;;;;;;;;;;23.20;65.00;;;22.59;60.29;96250.13;4153610;34;19903;-85
2022/08/05 10:46:49;;;;;;;;;;;23.20;65.10;;;22.60;60.00;96243.38;4180629;33;20242;-85
2022/08/05 10:49:18;;;;;;;;;;;23.20;65.00;;;22.58;60.43;96240.94;4181501;33;19910;-86
2022/08/05 10:51:48;;;;;;;;;;;23.20;64.90;;;22.59;60.38;96238.97;4156198;34;19976;-86
2022/08/05 10:54:18;;;;;;;;;;;23.20;65.00;;;22.60;60.20;96240.59;4153567;34;19903;-86
2022/08/05 10:56:48;;;;;;;;;;;23.20;65.00;;;22.60;60.18;96233.03;4178568;33;19910;-87
2022/08/05 10:59:17;;;;;;;;;;;23.20;65.00;;;22.61;60.11;96222.69;4204634;33;19903;-85
2022/08/05 11:01:46;;;;;;;;;;;23.20;65.00;;;22.60;60.35;96227.47;4158208;34;20114;-86
2022/08/05 11:04:16;;;;;;;;;;;23.20;65.00;;;22.61;60.38;96223.50;4176504;34;19995;-86
2022/08/05 11:07:07;;;;;;;;;;;23.20;65.10;;;22.61;60.07;96229.09;4199322;33;20163;-85
2022/08/05 11:09:44;;;;;;;;;;;23.20;64.90;;;22.61;60.01;96217.94;4208267;33;20169;-86
2022/08/05 11:12:46;;;;;;;;;;;23.20;65.00;;;22.61;60.22;96219.88;4157025;34;19911;-86
2022/08/05 11:15:21;;;;;;;;;;;23.20;65.10;;;22.60;60.44;96215.47;4182516;33;20133;-86
2022/08/05 11:17:50;;;;;;;;;;;23.20;65.10;;;22.61;60.30;96212.34;4208118;33;20113;-86
2022/08/05 11:20:39;;;;;;;;;;;23.20;65.00;;;22.61;60.15;96208.72;4203946;33;19918;-86
2022/08/05 11:23:43;;;;;;;;;;;23.20;65.80;;;22.60;60.21;96213.50;4155776;34;19910;-86
2022/08/05 11:26:21;;;;;;;;;;;23.20;65.00;;;22.61;60.25;96211.53;4101659;34;19959;-86
2022/08/05 11:28:50;;;;;;;;;;;23.20;65.00;;;22.59;60.44;96211.88;4079381;34;19911;-86
2022/08/05 11:31:33;;;;;;;;;;;23.20;65.00;;;22.61;60.22;96208.72;4119259;34;20129;-86
2022/08/05 11:34:04;;;;;;;;;;;23.20;65.00;;;22.61;60.33;96217.09;4155643;34;19910;-85
2022/08/05 11:36:45;;;;;;;;;;;23.20;65.00;;;22.60;60.20;96215.47;4179389;34;19910;-85